createdAt,value
2018-07-25T04:05:14.038Z,9.37
2018-07-25T04:10:16.462Z,8.97
2018-07-25T04:15:18.858Z,10.27
2018-07-25T04:20:21.266Z,9.00
2018-07-25T04:25:24.182Z,9.63
2018-07-25T04:30:27.162Z,9.60
2018-07-25T04:35:29.578Z,9.10
2018-07-25T04:40:31.978Z,8.23
2018-07-25T04:45:34.390Z,9.33
2018-07-25T04:50:36.777Z,9.47
2018-07-25T04:55:39.476Z,9.00
2018-07-25T05:00:42.218Z,8.13
2018-07-25T05:05:45.842Z,8.90
2018-07-25T05:10:48.560Z,9.10
2018-07-25T05:15:55.774Z,8.20
2018-07-25T05:20:59.725Z,9.30
2018-07-25T05:26:02.124Z,8.50
2018-07-25T05:31:04.563Z,13.23
2018-07-25T05:36:07.491Z,14.47
2018-07-25T05:41:10.256Z,13.37
2018-07-25T05:51:41.358Z,14.57
2018-07-25T05:56:44.096Z,14.87
2018-07-25T06:01:46.805Z,14.60
2018-07-25T06:06:49.366Z,14.30
2018-07-25T06:11:52.145Z,13.80
2018-07-25T06:16:54.590Z,13.33
2018-07-25T06:21:57.257Z,12.13
2018-07-25T06:26:59.680Z,11.23
2018-07-25T06:32:02.451Z,11.20
2018-07-25T06:37:04.870Z,11.30
2018-07-25T06:42:07.578Z,11.27
2018-07-25T06:47:10.002Z,11.30
2018-07-25T06:52:12.403Z,10.97
2018-07-25T06:57:15.110Z,10.10
2018-07-25T07:02:17.518Z,10.90
2018-07-25T07:07:20.633Z,10.90
2018-07-25T07:12:23.070Z,11.60
2018-07-25T07:17:25.516Z,11.00
2018-07-25T07:22:28.082Z,9.70
2018-07-25T07:27:30.742Z,10.27
2018-07-25T07:32:33.146Z,10.20
2018-07-25T07:37:35.888Z,10.57
2018-07-25T07:42:38.882Z,9.60
2018-07-25T07:47:41.332Z,9.63
2018-07-25T07:52:43.762Z,9.33
2018-07-25T07:57:46.174Z,9.53
2018-07-25T08:02:48.865Z,9.50
2018-07-25T08:07:51.334Z,10.13
2018-07-25T08:12:54.062Z,9.53
2018-07-25T08:17:56.535Z,8.60
2018-07-25T08:22:59.201Z,9.07
2018-07-25T08:28:01.626Z,9.00
2018-07-25T08:33:04.391Z,9.20
2018-07-25T08:38:07.083Z,9.43
2018-07-25T08:43:09.841Z,9.20
2018-07-25T08:48:12.262Z,8.90
2018-07-25T08:53:14.670Z,9.67
2018-07-25T08:58:17.129Z,9.40
2018-07-25T09:03:19.550Z,8.47
2018-07-25T09:08:22.254Z,8.33
2018-07-25T09:13:24.978Z,8.30
2018-07-25T09:18:27.433Z,8.03
2018-07-25T09:23:29.878Z,8.43
2018-07-25T09:28:32.594Z,8.30
2018-07-25T09:33:35.042Z,8.23
2018-07-25T09:38:38.049Z,7.93
2018-07-25T09:43:40.506Z,8.40
2018-07-25T09:48:42.929Z,7.97
2018-07-25T09:53:45.421Z,6.97
2018-07-25T09:58:47.894Z,7.70
2018-07-25T10:03:50.350Z,7.80
2018-07-25T10:08:53.143Z,7.57
2018-07-25T10:13:55.857Z,8.07
2018-07-25T10:18:58.550Z,6.80
2018-07-25T10:24:01.630Z,7.57
2018-07-25T10:29:04.977Z,7.53
2018-07-25T10:34:07.737Z,7.53
2018-07-25T10:39:10.974Z,7.40
2018-07-25T10:44:13.765Z,7.73
2018-07-25T10:49:16.193Z,6.77
2018-07-25T10:54:19.158Z,7.20
2018-07-25T10:59:21.947Z,7.00
2018-07-25T11:04:24.413Z,6.80
2018-07-25T11:09:26.986Z,7.57
2018-07-25T11:14:29.458Z,7.43
2018-07-25T11:19:31.943Z,6.67
2018-07-25T11:24:34.450Z,7.73
2018-07-25T11:29:36.943Z,7.50
2018-07-25T11:34:39.738Z,6.80
2018-07-25T11:39:42.532Z,8.33
2018-07-25T11:44:45.007Z,6.70
2018-07-25T11:49:47.814Z,7.63
2018-07-25T11:54:50.530Z,6.97
2018-07-25T11:59:53.290Z,7.10
2018-07-25T12:04:55.739Z,6.93
2018-07-25T12:09:58.210Z,7.40
2018-07-25T12:15:00.671Z,6.77
2018-07-25T12:20:03.142Z,7.30
2018-07-25T12:25:06.399Z,6.20
2018-07-25T12:30:09.548Z,7.57
2018-07-25T12:35:12.055Z,7.03
2018-07-25T12:40:14.556Z,6.83
2018-07-25T12:45:17.607Z,6.60
2018-07-25T12:50:20.096Z,6.87
2018-07-25T12:55:22.567Z,6.23
2018-07-25T13:00:25.049Z,7.63
2018-07-25T13:05:28.047Z,7.20
2018-07-25T13:10:30.554Z,6.27
2018-07-25T13:15:33.059Z,6.87
2018-07-25T13:20:35.767Z,6.30
2018-07-25T13:25:38.293Z,6.87
2018-07-25T13:30:40.772Z,6.77
2018-07-25T13:35:43.206Z,6.10
2018-07-25T13:40:46.480Z,6.50
2018-07-25T13:45:49.772Z,6.80
2018-07-25T13:50:52.590Z,6.63
2018-07-25T13:55:55.035Z,7.50
2018-07-25T14:00:58.171Z,6.17
2018-07-25T14:06:00.901Z,7.50
2018-07-25T14:11:03.652Z,7.10
2018-07-25T14:16:06.804Z,6.00
2018-07-25T14:21:09.570Z,6.27
2018-07-25T14:26:12.293Z,6.50
2018-07-25T14:31:15.059Z,6.87
2018-07-25T14:36:18.099Z,6.80
2018-07-25T14:41:20.602Z,6.80
2018-07-25T14:46:23.130Z,6.87
2018-07-25T14:51:25.669Z,7.20
2018-07-25T14:56:28.874Z,6.43
2018-07-25T15:01:31.686Z,6.47
2018-07-25T15:06:34.554Z,6.73
2018-07-25T15:11:37.394Z,6.97
2018-07-25T15:16:40.069Z,6.23
2018-07-25T15:21:42.897Z,5.97
2018-07-25T15:26:45.617Z,6.40
2018-07-25T15:31:48.472Z,6.17
2018-07-25T15:36:52.553Z,6.40
2018-07-25T15:41:56.250Z,7.73
2018-07-25T15:46:58.699Z,6.43
2018-07-25T15:52:01.985Z,7.27
2018-07-25T15:57:05.168Z,7.40
2018-07-25T16:02:08.718Z,6.70
2018-07-25T16:07:11.898Z,7.17
2018-07-25T16:12:15.744Z,6.87
2018-07-25T16:17:18.958Z,6.30
2018-07-25T16:22:21.932Z,7.10
2018-07-25T16:27:24.774Z,6.90
2018-07-25T16:32:27.920Z,6.07
2018-07-25T16:37:31.103Z,7.03
2018-07-25T16:42:34.129Z,7.53
2018-07-25T16:47:37.148Z,6.73
2018-07-25T16:52:40.463Z,6.67
2018-07-25T16:57:43.216Z,6.57
2018-07-25T17:02:46.279Z,7.03
2018-07-25T17:07:49.427Z,6.30
2018-07-25T17:12:52.455Z,6.17
2018-07-25T17:17:55.595Z,7.00
2018-07-25T17:22:58.046Z,6.30
2018-07-25T17:28:00.754Z,6.53
2018-07-25T17:33:03.198Z,6.40
2018-07-25T17:38:06.290Z,10.40
2018-07-25T17:43:09.143Z,12.27
2018-07-25T17:48:11.953Z,13.00
2018-07-25T17:53:14.342Z,8.40
2018-07-25T17:58:17.026Z,8.00
2018-07-25T18:03:19.873Z,7.80
2018-07-25T18:08:22.650Z,7.53
2018-07-25T18:13:31.015Z,7.40
2018-07-25T18:18:33.708Z,7.03
2018-07-25T18:23:36.160Z,7.50
2018-07-25T18:28:38.623Z,7.13
2018-07-25T18:33:41.693Z,7.47
2018-07-25T18:38:44.629Z,12.20
2018-07-25T18:43:47.100Z,16.43
2018-07-25T18:48:49.538Z,8.83
2018-07-25T18:53:52.242Z,6.43
2018-07-25T18:58:54.682Z,7.53
2018-07-25T19:03:57.146Z,7.70
2018-07-25T19:08:59.658Z,8.00
2018-07-25T19:14:07.578Z,8.53
2018-07-25T19:19:10.290Z,7.53
2018-07-25T19:24:12.698Z,6.73
2018-07-25T19:29:16.061Z,7.03
2018-07-25T19:34:18.753Z,7.33
2018-07-25T19:39:21.154Z,7.07
2018-07-25T19:44:24.172Z,7.37
2018-07-25T19:49:26.958Z,8.17
2018-07-25T19:54:29.369Z,6.80
2018-07-25T19:59:32.793Z,9.43
2018-07-25T20:04:35.236Z,7.57
2018-07-25T20:09:38.602Z,6.50
2018-07-25T20:14:46.783Z,6.13
2018-07-25T20:19:49.893Z,7.10
2018-07-25T20:24:52.275Z,9.60
2018-07-25T20:29:54.807Z,6.40
2018-07-25T20:34:57.627Z,6.80
2018-07-25T20:40:00.322Z,5.73
2018-07-25T20:45:03.091Z,5.77
2018-07-25T20:50:05.614Z,5.57
2018-07-25T20:55:08.086Z,5.73
2018-07-25T21:00:10.920Z,5.40
2018-07-25T21:05:13.330Z,5.90
2018-07-25T21:10:15.906Z,5.40
2018-07-25T21:15:18.364Z,8.43
2018-07-25T21:20:21.499Z,10.50
2018-07-25T21:25:24.607Z,6.67
2018-07-25T21:30:27.246Z,5.80
2018-07-25T21:35:29.947Z,6.40
2018-07-25T21:40:32.373Z,14.10
2018-07-25T21:45:35.086Z,7.40
2018-07-25T21:50:37.908Z,6.77
2018-07-25T21:55:40.682Z,7.10
2018-07-25T22:00:48.785Z,7.53
2018-07-25T22:05:51.437Z,7.67
2018-07-25T22:10:53.989Z,7.13
2018-07-25T22:15:56.414Z,9.73
2018-07-25T22:20:58.823Z,7.63
2018-07-25T22:26:01.528Z,8.17
2018-07-25T22:31:03.962Z,7.73
2018-07-25T22:36:07.301Z,7.93
2018-07-25T22:41:10.098Z,7.50
2018-07-25T22:46:13.101Z,7.63
2018-07-25T22:51:15.874Z,8.20
2018-07-25T22:56:18.602Z,7.90
2018-07-25T23:01:21.128Z,8.40
2018-07-25T23:06:23.554Z,7.80
2018-07-25T23:11:26.675Z,7.30
2018-07-25T23:16:29.119Z,7.37
2018-07-25T23:21:31.555Z,7.87
2018-07-25T23:26:34.342Z,7.57
2018-07-25T23:31:37.042Z,7.83
2018-07-25T23:36:39.754Z,8.27
2018-07-25T23:41:42.207Z,8.17
2018-07-25T23:46:44.668Z,8.60
2018-07-25T23:51:47.118Z,7.13
2018-07-25T23:56:49.611Z,7.67
